Weather History for Muscatine, IA

Change the Weather History Date:

Saturday, December 21, 2013

  Actual Average Record
Temperature  
Mean Temperature 28 °F -  
Max Temperature 30 °F 31 °F 58 °F (1967)
Min Temperature 26 °F 15 °F -21 °F (1963)
Degree Days  
Heating Degree Days 37    
Moisture  
Dew Point 26 °F    
Average Humidity 91    
Maximum Humidity 100    
Minimum Humidity 86    
Precipitation  
Precipitation 0.01 in - - ()
Sea Level Pressure  
Sea Level Pressure 29.81 in    
Wind  
Wind Speed 9 mph (North)    
Max Wind Speed 15 mph    
Max Gust Speed 22 mph    
Visibility 6 miles    
Events Rain , Snow    
Averages and records for this station are not official NWS values.
T = Trace of Precipitation, MM = Missing Value Source: NWS Daily Summary

Daily Weather History Graph

Daily Weather History Graph

Search for Another Location

Airport:

Trip Planner

Search our weather history database for the weather conditions in past years. The results will help you decide how hot, cold, wet, or windy it might be!

Date:

Astronomy

Dec. 21, 2013 Rise Set
Actual Time 7:27 AM CST 4:38 PM CST
Civil Twilight 6:55 AM CST 5:09 PM CST
Nautical Twilight 6:21 AM CST 5:44 PM CST
Astronomical Twilight 5:47 AM CST 6:18 PM CST
Moon 8:57 PM CST (12/21) 9:51 AM CST (12/21)
Length of Visible Light 10h 13m
Length of Day
9h 11m
Waning Gibbous, 84% of the Moon is Illuminated
Dec 21
Waning Gibbous
Dec 25
Last Quarter
Jan 1
New
Jan 7
First Quarter
Jan 15
Full

Hourly Weather History & Observations

Time (CST) Temp. Windchill Dew Point Humidity Pressure Visibility Wind Dir Wind Speed Gust Speed Precip Events Conditions
12:15 AM 26.6 °F 17.5 °F 26.6 °F 100% 29.87 in 6.0 mi West 9.2 mph - N/A   Overcast
12:35 AM 26.6 °F 17.5 °F 26.6 °F 100% 29.87 in 6.0 mi West 9.2 mph - N/A   Overcast
12:55 AM 26.6 °F 16.8 °F 24.8 °F 93% 29.88 in 8.0 mi West 10.4 mph - N/A   Overcast
1:15 AM 26.6 °F 16.8 °F 24.8 °F 93% 29.87 in 6.0 mi West 10.4 mph - N/A   Overcast
1:35 AM 26.6 °F 17.5 °F 24.8 °F 93% 29.87 in 6.0 mi West 9.2 mph - N/A   Overcast
1:55 AM 26.6 °F 16.2 °F 24.8 °F 93% 29.88 in 8.0 mi West 11.5 mph - N/A   Overcast
2:15 AM 26.6 °F 17.5 °F 24.8 °F 93% 29.86 in 8.0 mi WNW 9.2 mph - N/A   Overcast
2:35 AM 26.6 °F 17.5 °F 24.8 °F 93% 29.84 in 8.0 mi NW 9.2 mph - N/A   Overcast
2:55 AM 26.6 °F 18.2 °F 24.8 °F 93% 29.86 in 8.0 mi NW 8.1 mph - N/A   Overcast
3:15 AM 26.6 °F 18.2 °F 24.8 °F 93% 29.85 in 8.0 mi NW 8.1 mph - N/A   Overcast
3:35 AM 26.6 °F 17.5 °F 24.8 °F 93% 29.81 in 8.0 mi NNW 9.2 mph - N/A   Overcast
3:55 AM 26.6 °F 19.1 °F 24.8 °F 93% 29.81 in 8.0 mi North 6.9 mph - N/A   Overcast
4:15 AM 26.6 °F 17.5 °F 24.8 °F 93% 29.82 in 7.0 mi North 9.2 mph - N/A   Overcast
4:35 AM 26.6 °F 19.1 °F 24.8 °F 93% 29.84 in 7.0 mi NNW 6.9 mph - N/A   Overcast
4:55 AM 26.6 °F 17.5 °F 24.8 °F 93% 29.86 in 8.0 mi NW 9.2 mph - N/A   Overcast
5:15 AM 26.6 °F - 24.8 °F 93% 29.88 in 9.0 mi Calm Calm - N/A   Overcast
5:35 AM 26.6 °F 21.2 °F 23.0 °F 86% 29.86 in 10.0 mi North 4.6 mph - N/A   Overcast
5:55 AM 26.6 °F 20.0 °F 24.8 °F 93% 29.84 in 7.0 mi North 5.8 mph - N/A   Overcast
6:15 AM 26.6 °F 21.2 °F 24.8 °F 93% 29.88 in 7.0 mi NW 4.6 mph - N/A   Overcast
6:35 AM 26.6 °F - 24.8 °F 93% 29.84 in 6.0 mi Calm Calm - N/A   Overcast
6:55 AM 26.6 °F 20.0 °F 24.8 °F 93% 29.85 in 6.0 mi NNW 5.8 mph - N/A   Overcast
7:15 AM 26.6 °F 20.0 °F 24.8 °F 93% 29.84 in 5.0 mi NNW 5.8 mph - N/A   Overcast
7:35 AM 26.6 °F 20.0 °F 24.8 °F 93% 29.83 in 5.0 mi North 5.8 mph - N/A   Overcast
7:55 AM 26.6 °F 19.1 °F 24.8 °F 93% 29.82 in 4.0 mi North 6.9 mph - N/A   Overcast
8:15 AM 26.6 °F 17.5 °F 24.8 °F 93% 29.84 in 5.0 mi NNW 9.2 mph - N/A   Overcast
8:35 AM 26.6 °F 17.5 °F 24.8 °F 93% 29.87 in 6.0 mi NNW 9.2 mph - N/A   Overcast
8:55 AM 26.6 °F 17.5 °F 24.8 °F 93% 29.88 in 6.0 mi NNW 9.2 mph - N/A   Overcast
9:15 AM 26.6 °F 19.1 °F 24.8 °F 93% 29.87 in 6.0 mi North 6.9 mph - N/A   Overcast
9:35 AM 26.6 °F 18.2 °F 24.8 °F 93% 29.87 in 5.0 mi North 8.1 mph - N/A   Overcast
9:55 AM 26.6 °F 18.2 °F 24.8 °F 93% 29.86 in 6.0 mi North 8.1 mph - N/A   Overcast
10:15 AM 28.4 °F 19.7 °F 24.8 °F 86% 29.86 in 7.0 mi North 9.2 mph - N/A   Overcast
10:35 AM 28.4 °F 20.4 °F 24.8 °F 86% 29.87 in 7.0 mi NNE 8.1 mph - N/A   Overcast
10:55 AM 28.4 °F 20.4 °F 24.8 °F 86% 29.86 in 8.0 mi NNE 8.1 mph - N/A   Overcast
11:15 AM 28.4 °F 21.2 °F 24.8 °F 86% 29.86 in 7.0 mi NNE 6.9 mph - N/A   Overcast
11:35 AM 28.4 °F 20.4 °F 24.8 °F 86% 29.86 in 6.0 mi North 8.1 mph - N/A   Overcast
11:55 AM 28.4 °F 22.2 °F 24.8 °F 86% 29.86 in 7.0 mi NE 5.8 mph - N/A   Overcast
12:15 PM 28.4 °F 20.4 °F 24.8 °F 86% 29.85 in 8.0 mi NNE 8.1 mph - N/A   Overcast
12:35 PM 28.4 °F 19.7 °F 24.8 °F 86% 29.84 in 7.0 mi NNE 9.2 mph - N/A   Overcast
12:55 PM 28.4 °F 19.7 °F 26.6 °F 93% 29.82 in 7.0 mi NE 9.2 mph - N/A   Overcast
1:15 PM 30.2 °F 22.6 °F 26.6 °F 86% 29.81 in 7.0 mi NNE 8.1 mph - N/A   Overcast
1:35 PM 30.2 °F 22.6 °F 26.6 °F 86% 29.80 in 7.0 mi NNE 8.1 mph - N/A   Overcast
1:55 PM 30.2 °F 21.3 °F 26.6 °F 86% 29.79 in 7.0 mi NNE 10.4 mph - N/A   Overcast
2:15 PM 30.2 °F 21.9 °F 26.6 °F 86% 29.79 in 7.0 mi NNE 9.2 mph - N/A   Overcast
2:35 PM 30.2 °F 21.3 °F 26.6 °F 86% 29.79 in - NNE 10.4 mph - N/A   Overcast
2:55 PM 30.2 °F 21.3 °F 26.6 °F 86% 29.79 in 7.0 mi North 10.4 mph - N/A   Overcast
3:15 PM 30.2 °F 22.6 °F 26.6 °F 86% 29.80 in 6.0 mi NNE 8.1 mph - N/A   Overcast
3:35 PM 30.2 °F 21.9 °F 26.6 °F 86% 29.81 in 6.0 mi NNE 9.2 mph - N/A   Overcast
3:55 PM 30.2 °F 20.8 °F 26.6 °F 86% 29.80 in 5.0 mi NNE 11.5 mph - N/A   Overcast
4:15 PM 30.2 °F 20.2 °F 26.6 °F 86% 29.78 in 4.0 mi NE 12.7 mph - N/A   Overcast
4:35 PM 30.2 °F 19.8 °F 28.4 °F 93% 29.77 in 4.0 mi NNE 13.8 mph - N/A   Overcast
4:55 PM 30.2 °F 20.8 °F 28.4 °F 93% 29.76 in 5.0 mi NE 11.5 mph - N/A   Overcast
5:15 PM 30.2 °F 19.8 °F 28.4 °F 93% 29.76 in 4.0 mi NE 13.8 mph - N/A   Overcast
5:35 PM 30.2 °F 20.2 °F 28.4 °F 93% 29.77 in 4.0 mi NNE 12.7 mph - N/A   Overcast
5:55 PM 30.2 °F 20.2 °F 28.4 °F 93% 29.78 in 4.0 mi NE 12.7 mph - N/A   Overcast
6:15 PM 30.2 °F 21.3 °F 28.4 °F 93% 29.79 in 3.0 mi NE 10.4 mph - N/A   Overcast
6:35 PM 30.2 °F 21.3 °F 28.4 °F 93% 29.79 in 3.0 mi NNE 10.4 mph - N/A   Overcast
6:55 PM 30.2 °F 20.2 °F 28.4 °F 93% 29.79 in 3.0 mi NNE 12.7 mph - N/A Rain Light Freezing Rain
7:15 PM 30.2 °F 20.8 °F 28.4 °F 93% 29.78 in 3.0 mi North 11.5 mph - N/A Rain Light Freezing Rain
7:35 PM 30.2 °F 20.2 °F 28.4 °F 93% 29.77 in 1.2 mi NNE 12.7 mph - N/A   Overcast
7:55 PM 30.2 °F 20.2 °F 28.4 °F 93% 29.73 in 1.2 mi NNE 12.7 mph - N/A Snow Light Snow
8:15 PM 30.2 °F 19.3 °F 28.4 °F 93% 29.72 in 3.0 mi NNE 15.0 mph - N/A   Overcast
8:35 PM 30.2 °F 19.8 °F 28.4 °F 93% 29.71 in 5.0 mi NNE 13.8 mph 21.9 mph N/A   Overcast
8:55 PM 30.2 °F 19.8 °F 28.4 °F 93% 29.69 in 5.0 mi NE 13.8 mph - N/A   Overcast
9:15 PM 30.2 °F 19.8 °F 28.4 °F 93% 29.68 in 6.0 mi NE 13.8 mph 20.7 mph N/A   Overcast
9:35 PM 30.2 °F 19.8 °F 28.4 °F 93% 29.69 in 7.0 mi NE 13.8 mph - N/A   Overcast
9:55 PM 30.2 °F 20.2 °F 28.4 °F 93% 29.68 in 8.0 mi NNE 12.7 mph 19.6 mph N/A   Overcast
10:15 PM 30.2 °F 20.8 °F 28.4 °F 93% 29.71 in 7.0 mi NNE 11.5 mph - N/A   Overcast
10:35 PM 30.2 °F 21.3 °F 28.4 °F 93% 29.70 in 6.0 mi NNE 10.4 mph - N/A   Overcast
10:55 PM 30.2 °F 20.2 °F 28.4 °F 93% 29.70 in 6.0 mi NNE 12.7 mph - N/A Rain Light Freezing Rain
11:15 PM 30.2 °F 21.9 °F 28.4 °F 93% 29.73 in 2.5 mi North 9.2 mph - N/A   Overcast
11:35 PM 30.2 °F 21.9 °F 28.4 °F 93% 29.73 in 1.8 mi North 9.2 mph - N/A   Overcast
11:55 PM 30.2 °F 20.8 °F 28.4 °F 93% 29.71 in 1.0 mi North 11.5 mph - 0.01 in   Overcast